createdAt,value
2023-04-16T00:01:41.305Z,100473.66
2023-04-16T00:04:09.403Z,100472.31
2023-04-16T00:06:37.220Z,100471.94
2023-04-16T00:09:05.014Z,100468.91
2023-04-16T00:11:32.726Z,100471.78
2023-04-16T00:14:00.454Z,100471.22
2023-04-16T00:16:28.823Z,100466.66
2023-04-16T00:18:57.869Z,100464.44
2023-04-16T00:21:26.445Z,100472.75
2023-04-16T00:23:54.210Z,100471.28
2023-04-16T00:26:21.935Z,100465.13
2023-04-16T00:28:49.637Z,100470.09
2023-04-16T00:31:17.390Z,100468.63
2023-04-16T00:33:45.190Z,100468.94
2023-04-16T00:36:14.247Z,100468.94
2023-04-16T00:38:41.869Z,100474.16
2023-04-16T00:41:09.558Z,100467.91
2023-04-16T00:43:37.218Z,100473.72
2023-04-16T00:46:06.665Z,100478.19
2023-04-16T00:48:34.796Z,100483.00
2023-04-16T00:51:02.710Z,100491.94
2023-04-16T00:53:32.022Z,100486.41
2023-04-16T00:56:00.144Z,100491.19
2023-04-16T00:58:27.955Z,100485.53
2023-04-16T01:00:56.452Z,100493.09
2023-04-16T01:03:24.498Z,100489.91
2023-04-16T01:05:52.516Z,100484.84
2023-04-16T01:08:23.427Z,100482.09
2023-04-16T01:10:52.480Z,100492.19
2023-04-16T01:13:20.155Z,100484.28
2023-04-16T01:15:47.886Z,100496.94
2023-04-16T01:18:16.294Z,100490.34
2023-04-16T01:20:45.471Z,100489.59
2023-04-16T01:23:13.292Z,100493.22
2023-04-16T01:25:41.066Z,100494.28
2023-04-16T01:28:08.865Z,100501.28
2023-04-16T01:30:36.530Z,100504.06
2023-04-16T01:33:04.374Z,100503.44
2023-04-16T01:35:32.070Z,100503.94
2023-04-16T01:38:01.258Z,100506.50
2023-04-16T01:40:28.985Z,100499.91
2023-04-16T01:42:56.666Z,100502.91
2023-04-16T01:45:24.432Z,100504.38
2023-04-16T01:47:52.973Z,100496.66
2023-04-16T01:50:21.231Z,100509.59
2023-04-16T01:52:48.912Z,100511.75
2023-04-16T01:55:17.991Z,100514.91
2023-04-16T01:57:45.724Z,100507.50
2023-04-16T02:00:13.566Z,100505.56
2023-04-16T02:02:41.409Z,100509.09
2023-04-16T02:05:09.530Z,100510.88
2023-04-16T02:07:37.262Z,100513.44
2023-04-16T02:10:05.403Z,100522.38
2023-04-16T02:12:34.493Z,100521.41
2023-04-16T02:15:02.208Z,100525.44
2023-04-16T02:17:29.960Z,100526.81
2023-04-16T02:19:57.630Z,100520.88
2023-04-16T02:22:25.322Z,100523.22
2023-04-16T02:24:53.106Z,100519.94
2023-04-16T02:27:20.946Z,100522.59
2023-04-16T02:29:49.975Z,100524.69
2023-04-16T02:32:18.329Z,100528.31
2023-04-16T02:34:46.046Z,100530.22
2023-04-16T02:37:15.270Z,100531.63
2023-04-16T02:39:43.894Z,100526.63
2023-04-16T02:42:11.616Z,100526.88
2023-04-16T02:44:39.282Z,100528.00
2023-04-16T02:47:09.238Z,100535.78
2023-04-16T02:49:36.894Z,100522.69
2023-04-16T02:52:04.616Z,100527.81
2023-04-16T02:54:32.286Z,100533.03
2023-04-16T02:56:59.908Z,100531.72
2023-04-16T02:59:27.521Z,100529.72
2023-04-16T03:01:55.466Z,100527.31
2023-04-16T03:04:24.652Z,100533.25
2023-04-16T03:06:52.349Z,100542.25
2023-04-16T03:09:20.087Z,100540.97
2023-04-16T03:11:47.787Z,100533.66
2023-04-16T03:14:15.489Z,100542.06
2023-04-16T03:16:43.179Z,100546.41
2023-04-16T03:19:11.053Z,100544.28
2023-04-16T03:21:40.323Z,100534.84
2023-04-16T03:24:07.945Z,100543.13
2023-04-16T03:26:35.766Z,100539.94
2023-04-16T03:29:03.575Z,100544.50
2023-04-16T03:31:31.563Z,100544.41
2023-04-16T03:33:59.288Z,100556.19
2023-04-16T03:36:27.128Z,100555.44
2023-04-16T03:38:56.187Z,100558.44
2023-04-16T03:41:23.949Z,100556.72
2023-04-16T03:43:51.677Z,100557.47
2023-04-16T03:46:19.388Z,100559.47
2023-04-16T03:48:47.123Z,100563.94
2023-04-16T03:51:14.796Z,100565.75
2023-04-16T03:53:42.533Z,100565.00
2023-04-16T03:56:11.601Z,100564.78
2023-04-16T03:58:39.230Z,100573.19
2023-04-16T04:01:06.919Z,100572.00
2023-04-16T04:03:34.822Z,100572.25
2023-04-16T04:06:02.609Z,100568.31
2023-04-16T04:08:30.358Z,100571.63
2023-04-16T04:10:58.166Z,100566.59
2023-04-16T04:13:27.187Z,100567.88
2023-04-16T04:15:54.966Z,100567.34
2023-04-16T04:18:22.703Z,100569.25
2023-04-16T04:20:50.441Z,100572.75
2023-04-16T04:23:18.107Z,100577.13
2023-04-16T04:25:46.021Z,100578.94
2023-04-16T04:28:13.832Z,100574.47
2023-04-16T04:30:42.980Z,100575.22
2023-04-16T04:33:10.689Z,100579.88
2023-04-16T04:35:38.584Z,100577.03
2023-04-16T04:38:06.659Z,100570.75
2023-04-16T04:40:34.382Z,100578.06
2023-04-16T04:43:02.024Z,100574.38
2023-04-16T04:45:31.623Z,100584.34
2023-04-16T04:48:01.128Z,100585.41
2023-04-16T04:50:28.952Z,100599.00
2023-04-16T04:52:56.590Z,100594.53
2023-04-16T04:55:24.350Z,100599.84
2023-04-16T04:57:52.132Z,100604.97
2023-04-16T05:00:20.047Z,100601.34
2023-04-16T05:02:48.344Z,100608.56
2023-04-16T05:05:17.584Z,100607.72
2023-04-16T05:07:46.996Z,100609.41
2023-04-16T05:10:14.980Z,100619.09
2023-04-16T05:12:42.722Z,100616.63
2023-04-16T05:15:11.238Z,100619.59
2023-04-16T05:17:39.207Z,100628.75
2023-04-16T05:20:08.228Z,100625.47
2023-04-16T05:22:37.380Z,100632.47
2023-04-16T05:25:05.693Z,100637.34
2023-04-16T05:27:33.354Z,100632.13
2023-04-16T05:30:01.043Z,100630.97
2023-04-16T05:32:28.709Z,100633.63
2023-04-16T05:34:56.532Z,100641.19
2023-04-16T05:37:24.228Z,100649.47
2023-04-16T05:39:53.273Z,100647.13
2023-04-16T05:42:21.039Z,100642.97
2023-04-16T05:44:48.634Z,100657.88
2023-04-16T05:47:17.560Z,100647.34
2023-04-16T05:49:45.372Z,100658.50
2023-04-16T05:52:13.103Z,100659.25
2023-04-16T05:54:40.850Z,100663.63
2023-04-16T05:57:10.772Z,100669.78
2023-04-16T05:59:38.511Z,100667.94
2023-04-16T06:02:06.376Z,100664.44
2023-04-16T06:04:35.701Z,100667.84
2023-04-16T06:07:03.360Z,100671.47
2023-04-16T06:09:31.097Z,100666.91
2023-04-16T06:11:59.055Z,100676.38
2023-04-16T06:14:28.129Z,100667.53
2023-04-16T06:16:56.357Z,100663.81
2023-04-16T06:19:24.047Z,100675.19
2023-04-16T06:21:52.325Z,100667.97
2023-04-16T06:24:20.758Z,100684.75
2023-04-16T06:26:48.514Z,100673.78
2023-04-16T06:29:16.332Z,100678.16
2023-04-16T06:31:45.478Z,100684.56
2023-04-16T06:34:13.238Z,100684.97
2023-04-16T06:36:41.125Z,100693.78
2023-04-16T06:39:09.133Z,100683.16
2023-04-16T06:41:37.272Z,100696.97
2023-04-16T06:44:05.087Z,100691.88
2023-04-16T06:46:32.911Z,100699.00
2023-04-16T06:49:02.292Z,100699.00
2023-04-16T06:51:30.379Z,100701.84
2023-04-16T06:53:58.076Z,100694.41
2023-04-16T06:56:25.818Z,100696.75
2023-04-16T06:58:53.477Z,100694.41
2023-04-16T07:01:21.226Z,100703.13
2023-04-16T07:03:49.269Z,100689.00
2023-04-16T07:06:18.598Z,100702.41
2023-04-16T07:08:46.235Z,100703.25
2023-04-16T07:11:13.978Z,100691.66
2023-04-16T07:13:41.718Z,100697.38
2023-04-16T07:16:09.712Z,100696.09
2023-04-16T07:18:38.838Z,100695.03
2023-04-16T07:21:06.612Z,100703.31
2023-04-16T07:23:35.809Z,100695.34
2023-04-16T07:26:03.927Z,100698.97
2023-04-16T07:28:31.727Z,100704.06
2023-04-16T07:30:59.599Z,100707.25
2023-04-16T07:33:27.429Z,100697.25
2023-04-16T07:35:55.154Z,100713.59
2023-04-16T07:38:22.777Z,100711.25
2023-04-16T07:40:51.914Z,100713.56
2023-04-16T07:43:19.659Z,100711.59
2023-04-16T07:45:47.319Z,100715.31
2023-04-16T07:48:15.080Z,100710.09
2023-04-16T07:50:43.629Z,100723.59
2023-04-16T07:53:11.446Z,100719.66
2023-04-16T07:55:39.148Z,100715.63
2023-04-16T07:58:09.609Z,100718.53
2023-04-16T08:00:37.385Z,100725.97
2023-04-16T08:03:05.374Z,100722.22
2023-04-16T08:05:33.164Z,100729.97
2023-04-16T08:08:01.084Z,100729.47
2023-04-16T08:10:28.926Z,100735.13
2023-04-16T08:12:56.631Z,100732.66
2023-04-16T08:15:25.660Z,100739.47
2023-04-16T08:17:53.850Z,100736.25
2023-04-16T08:20:21.648Z,100738.09
2023-04-16T08:22:49.551Z,100737.75
2023-04-16T08:25:17.462Z,100737.31
2023-04-16T08:27:45.188Z,100740.59
2023-04-16T08:30:13.293Z,100742.06
2023-04-16T08:32:43.205Z,100750.25
2023-04-16T08:35:11.082Z,100750.56
2023-04-16T08:37:38.824Z,100757.34
2023-04-16T08:40:07.848Z,100753.53
2023-04-16T08:42:46.004Z,100755.13
2023-04-16T08:45:16.457Z,100753.31
2023-04-16T08:47:47.838Z,100762.13
2023-04-16T08:50:16.834Z,100760.72
2023-04-16T08:52:51.282Z,100768.63
2023-04-16T08:55:22.840Z,100767.66
2023-04-16T08:57:53.623Z,100769.56
2023-04-16T09:00:22.232Z,100769.06
2023-04-16T09:02:52.705Z,100774.84
2023-04-16T09:05:25.393Z,100778.88
2023-04-16T09:07:54.584Z,100778.25
2023-04-16T09:10:22.918Z,100778.59
2023-04-16T09:12:51.186Z,100773.81
2023-04-16T09:15:21.575Z,100791.16
2023-04-16T09:17:49.431Z,100788.72
2023-04-16T09:20:18.793Z,100790.56
2023-04-16T09:22:46.819Z,100788.50
2023-04-16T09:25:14.923Z,100795.22
2023-04-16T09:27:42.740Z,100794.25
2023-04-16T09:30:26.256Z,100794.16
2023-04-16T09:33:12.639Z,100794.25
2023-04-16T09:35:48.198Z,100797.78
2023-04-16T09:38:16.376Z,100802.69
2023-04-16T09:40:44.393Z,100800.13
2023-04-16T09:43:14.950Z,100803.53
2023-04-16T09:45:50.775Z,100803.28
2023-04-16T09:48:31.204Z,100802.00
2023-04-16T09:51:01.401Z,100799.03
2023-04-16T09:53:30.765Z,100804.78
2023-04-16T09:55:58.906Z,100805.00
2023-04-16T09:58:27.001Z,100806.06
2023-04-16T10:00:57.320Z,100802.44
2023-04-16T10:03:31.922Z,100811.16
2023-04-16T10:06:03.248Z,100813.41
2023-04-16T10:08:31.127Z,100814.25
2023-04-16T10:10:59.173Z,100818.00
2023-04-16T10:13:27.900Z,100811.94
2023-04-16T10:15:57.683Z,100813.94
2023-04-16T10:18:25.605Z,100812.78
2023-04-16T10:20:53.998Z,100821.00
2023-04-16T10:23:23.400Z,100818.31
2023-04-16T10:25:51.570Z,100818.94
2023-04-16T10:28:19.956Z,100820.44
2023-04-16T10:30:53.672Z,100819.88
2023-04-16T10:33:22.840Z,100821.31
2023-04-16T10:36:01.379Z,100822.56
2023-04-16T10:38:36.277Z,100821.81
2023-04-16T10:41:05.488Z,100821.38
2023-04-16T10:43:39.474Z,100825.94
2023-04-16T10:46:21.405Z,100822.44
2023-04-16T10:48:50.906Z,100826.69
2023-04-16T10:51:27.797Z,100824.91
2023-04-16T10:53:57.764Z,100829.34
2023-04-16T10:56:26.221Z,100829.06
2023-04-16T10:58:55.994Z,100827.13
2023-04-16T11:01:32.596Z,100828.19
2023-04-16T11:04:02.893Z,100820.19
2023-04-16T11:06:31.943Z,100818.41
2023-04-16T11:09:04.000Z,100826.25
2023-04-16T11:11:39.480Z,100833.63
2023-04-16T11:14:10.446Z,100827.97
2023-04-16T11:16:42.283Z,100829.06
2023-04-16T11:19:17.445Z,100825.31
2023-04-16T11:21:46.177Z,100823.50
2023-04-16T11:24:15.426Z,100828.28
2023-04-16T11:26:43.159Z,100836.47
2023-04-16T11:29:15.538Z,100831.47
2023-04-16T11:31:43.355Z,100839.03
2023-04-16T11:34:11.427Z,100828.19
2023-04-16T11:36:44.910Z,100822.63
2023-04-16T11:39:12.800Z,100826.66
2023-04-16T11:41:45.144Z,100831.97
2023-04-16T11:44:23.546Z,100830.28
2023-04-16T11:46:51.868Z,100830.28
2023-04-16T11:49:28.326Z,100826.66
2023-04-16T11:51:56.524Z,100822.31
2023-04-16T11:54:34.674Z,100816.97
2023-04-16T11:57:06.890Z,100830.28
2023-04-16T11:59:34.623Z,100829.53
2023-04-16T12:02:02.324Z,100825.47
2023-04-16T12:04:30.340Z,100833.34
2023-04-16T12:07:11.800Z,100830.47
2023-04-16T12:09:41.558Z,100832.56
2023-04-16T12:12:30.881Z,100833.22
2023-04-16T12:15:03.194Z,100831.78
2023-04-16T12:17:31.397Z,100832.41
2023-04-16T12:20:01.178Z,100827.47
2023-04-16T12:22:30.283Z,100828.44
2023-04-16T12:25:00.384Z,100834.78
2023-04-16T12:27:42.325Z,100828.72
2023-04-16T12:30:13.212Z,100827.63
2023-04-16T12:32:45.605Z,100830.25
2023-04-16T12:35:14.148Z,100827.72
2023-04-16T12:37:43.103Z,100830.91
2023-04-16T12:40:12.174Z,100831.59
2023-04-16T12:42:41.354Z,100827.94
2023-04-16T12:45:09.443Z,100841.41
2023-04-16T12:47:37.222Z,100841.63
2023-04-16T12:50:05.889Z,100844.31
2023-04-16T12:52:33.763Z,100844.09
2023-04-16T12:55:04.547Z,100841.63
2023-04-16T12:57:36.129Z,100840.78
2023-04-16T13:00:06.374Z,100838.88
2023-04-16T13:02:34.328Z,100843.25
2023-04-16T13:05:02.181Z,100842.00
2023-04-16T13:07:32.171Z,100837.50
2023-04-16T13:10:01.053Z,100846.13
2023-04-16T13:12:29.064Z,100843.72
2023-04-16T13:14:56.835Z,100838.50
2023-04-16T13:17:26.255Z,100845.44
2023-04-16T13:19:54.569Z,100842.44
2023-04-16T13:22:22.400Z,100843.41
2023-04-16T13:24:50.160Z,100846.78
2023-04-16T13:27:17.980Z,100851.50
2023-04-16T13:29:45.771Z,100845.94
2023-04-16T13:32:14.066Z,100848.13
2023-04-16T13:34:43.618Z,100852.97
2023-04-16T13:37:11.321Z,100846.06
2023-04-16T13:39:39.072Z,100846.41
2023-04-16T13:42:06.810Z,100852.72
2023-04-16T13:44:34.622Z,100859.25
2023-04-16T13:47:03.147Z,100856.91
2023-04-16T13:49:32.187Z,100855.34
2023-04-16T13:52:02.283Z,100858.00
2023-04-16T13:54:30.211Z,100853.03
2023-04-16T13:56:58.132Z,100843.41
2023-04-16T13:59:26.218Z,100846.09
2023-04-16T14:01:55.078Z,100850.56
2023-04-16T14:04:22.890Z,100852.16
2023-04-16T14:06:50.946Z,100851.81
2023-04-16T14:09:19.977Z,100845.75
2023-04-16T14:11:47.704Z,100848.78
2023-04-16T14:14:15.536Z,100858.38
2023-04-16T14:16:43.482Z,100854.03
2023-04-16T14:19:11.687Z,100846.59
2023-04-16T14:21:39.974Z,100855.78
2023-04-16T14:24:09.268Z,100858.47
2023-04-16T14:26:38.386Z,100855.69
2023-04-16T14:29:06.659Z,100859.41
2023-04-16T14:31:34.493Z,100852.41
2023-04-16T14:34:02.641Z,100858.47
2023-04-16T14:36:31.234Z,100858.47
2023-04-16T14:38:59.001Z,100855.78
2023-04-16T14:41:27.147Z,100852.16
2023-04-16T14:43:56.197Z,100848.75
2023-04-16T14:46:25.082Z,100849.72
2023-04-16T14:48:53.027Z,100845.88
2023-04-16T14:51:20.749Z,100845.97
2023-04-16T14:53:48.587Z,100843.19
2023-04-16T14:56:16.367Z,100846.72
2023-04-16T14:58:44.095Z,100855.44
2023-04-16T15:01:14.781Z,100846.38
2023-04-16T15:03:43.177Z,100845.19
2023-04-16T15:06:11.586Z,100840.44
2023-04-16T15:08:39.734Z,100838.38
2023-04-16T15:11:07.653Z,100842.66
2023-04-16T15:13:35.550Z,100839.75
2023-04-16T15:16:04.478Z,100845.91
2023-04-16T15:18:33.767Z,100840.84
2023-04-16T15:21:01.505Z,100844.03
2023-04-16T15:23:29.262Z,100846.06
2023-04-16T15:25:57.225Z,100844.03
2023-04-16T15:28:24.975Z,100843.19
2023-04-16T15:30:53.108Z,100841.84
2023-04-16T15:33:22.316Z,100837.69
2023-04-16T15:35:52.411Z,100852.03
2023-04-16T15:38:21.221Z,100846.69
2023-04-16T15:40:49.367Z,100848.38
2023-04-16T15:45:45.382Z,100852.63
2023-04-16T15:48:13.181Z,100850.94
2023-04-16T15:50:41.043Z,100852.28
2023-04-16T15:53:10.206Z,100850.34
2023-04-16T15:55:38.264Z,100852.88
2023-04-16T15:58:06.037Z,100847.66
2023-04-16T16:00:34.086Z,100844.88
2023-04-16T16:03:01.901Z,100845.72
2023-04-16T16:05:29.974Z,100851.06
2023-04-16T16:07:58.433Z,100847.44
2023-04-16T16:10:27.771Z,100849.38
2023-04-16T16:12:57.207Z,100845.63
2023-04-16T16:15:24.930Z,100845.63
2023-04-16T16:17:53.583Z,100850.09
2023-04-16T16:20:22.638Z,100861.31
2023-04-16T16:22:53.004Z,100855.31
2023-04-16T16:25:21.432Z,100847.69
2023-04-16T16:27:50.898Z,100848.53
2023-04-16T16:30:18.638Z,100848.09
2023-04-16T16:32:46.657Z,100849.78
2023-04-16T16:35:14.733Z,100844.09
2023-04-16T16:37:42.451Z,100851.25
2023-04-16T16:40:11.308Z,100849.91
2023-04-16T16:42:39.191Z,100851.84
2023-04-16T16:45:10.093Z,100848.09
2023-04-16T16:47:37.817Z,100848.72
2023-04-16T16:50:06.744Z,100851.97
2023-04-16T16:52:34.661Z,100852.69
2023-04-16T16:55:02.363Z,100851.63
2023-04-16T16:57:30.064Z,100854.16
2023-04-16T16:59:57.870Z,100858.03
2023-04-16T17:02:27.166Z,100865.44
2023-04-16T17:04:54.982Z,100861.44
2023-04-16T17:07:22.738Z,100860.53
2023-04-16T17:09:50.452Z,100865.25
2023-04-16T17:12:18.093Z,100869.13
2023-04-16T17:14:45.944Z,100880.06
2023-04-16T17:17:13.638Z,100873.38
2023-04-16T17:19:42.719Z,100878.81
2023-04-16T17:22:10.653Z,100877.97
2023-04-16T17:24:38.525Z,100882.56
2023-04-16T17:27:06.369Z,100879.16
2023-04-16T17:29:34.076Z,100883.78
2023-04-16T17:32:02.087Z,100889.22
2023-04-16T17:34:30.109Z,100884.00
2023-04-16T17:36:59.156Z,100892.97
2023-04-16T17:39:26.893Z,100897.59
2023-04-16T17:41:58.388Z,100891.50
2023-04-16T17:44:28.043Z,100896.97
2023-04-16T17:46:55.942Z,100900.56
2023-04-16T17:49:23.873Z,100906.78
2023-04-16T17:51:51.692Z,100909.56
2023-04-16T17:54:20.971Z,100909.66
2023-04-16T17:56:48.726Z,100910.75
2023-04-16T17:59:16.500Z,100910.13
2023-04-16T18:01:44.464Z,100914.53
2023-04-16T18:04:12.622Z,100911.13
2023-04-16T18:06:40.930Z,100921.78
2023-04-16T18:09:08.895Z,100921.03
2023-04-16T18:11:38.182Z,100922.84
2023-04-16T18:14:06.049Z,100925.50
2023-04-16T18:16:33.863Z,100926.38
2023-04-16T18:19:01.695Z,100929.03
2023-04-16T18:21:30.504Z,100928.16
2023-04-16T18:23:58.876Z,100937.25
2023-04-16T18:26:29.699Z,100939.09
2023-04-16T18:29:00.319Z,100935.56
2023-04-16T18:31:28.294Z,100937.47
2023-04-16T18:33:57.906Z,100949.00
2023-04-16T18:36:26.746Z,100946.56
2023-04-16T18:39:00.814Z,100953.72
2023-04-16T18:41:30.006Z,100950.31
2023-04-16T18:43:59.154Z,100954.81
2023-04-16T18:46:27.539Z,100949.69
2023-04-16T18:48:55.612Z,100953.34
2023-04-16T18:51:23.392Z,100956.09
2023-04-16T18:53:51.340Z,100961.53
2023-04-16T18:56:19.182Z,100958.97
2023-04-16T18:58:47.874Z,100963.56
2023-04-16T19:01:17.906Z,100970.09
2023-04-16T19:03:46.052Z,100969.34
2023-04-16T19:06:14.053Z,100973.84
2023-04-16T19:08:41.790Z,100979.16
2023-04-16T19:11:09.609Z,100979.16
2023-04-16T19:13:38.705Z,100978.44
2023-04-16T19:16:11.300Z,100985.59
2023-04-16T19:18:40.867Z,100982.28
2023-04-16T19:21:10.832Z,100987.97
2023-04-16T19:23:38.757Z,100995.06
2023-04-16T19:26:06.692Z,100984.56
2023-04-16T19:28:34.740Z,100984.66
2023-04-16T19:31:02.625Z,100985.84
2023-04-16T19:33:31.265Z,100988.59
2023-04-16T19:36:00.450Z,100987.88
2023-04-16T19:38:28.288Z,100990.00
2023-04-16T19:40:56.297Z,100983.94
2023-04-16T19:43:24.102Z,100984.91
2023-04-16T19:45:53.534Z,100987.78
2023-04-16T19:48:21.655Z,100990.66
2023-04-16T19:50:49.753Z,100994.28
2023-04-16T19:53:18.814Z,100995.13
2023-04-16T19:55:46.784Z,100991.63
2023-04-16T19:58:14.687Z,100995.34
2023-04-16T20:00:43.131Z,101001.53
2023-04-16T20:03:11.223Z,100999.09
2023-04-16T20:05:39.057Z,101004.53
2023-04-16T20:08:07.389Z,101000.13
2023-04-16T20:10:36.516Z,101003.78
2023-04-16T20:13:04.926Z,100991.41
2023-04-16T20:15:32.593Z,100993.22
2023-04-16T20:18:00.409Z,101010.06
2023-04-16T20:20:28.187Z,100997.72
2023-04-16T20:22:56.028Z,100999.53
2023-04-16T20:25:26.257Z,101000.47
2023-04-16T20:27:55.453Z,101000.56
2023-04-16T20:30:28.804Z,101003.25
2023-04-16T20:32:56.806Z,100999.72
2023-04-16T20:35:24.584Z,101002.50
2023-04-16T20:37:52.417Z,101006.22
2023-04-16T20:40:21.187Z,101003.66
2023-04-16T20:42:52.011Z,101001.09
2023-04-16T20:45:21.930Z,100994.00
2023-04-16T20:47:49.640Z,100998.34
2023-04-16T20:50:17.510Z,100992.81
2023-04-16T20:52:45.347Z,100985.69
2023-04-16T20:55:13.070Z,100988.56
2023-04-16T20:57:40.815Z,100983.22
2023-04-16T21:00:12.027Z,100986.72
2023-04-16T21:02:41.471Z,100991.38
2023-04-16T21:05:13.687Z,100993.19
2023-04-16T21:07:42.245Z,100996.69
2023-04-16T21:10:11.231Z,100998.34
2023-04-16T21:12:39.048Z,100998.44
2023-04-16T21:15:07.595Z,100991.38
2023-04-16T21:17:35.342Z,100987.97
2023-04-16T21:20:06.938Z,100989.03
2023-04-16T21:22:34.651Z,100995.34
2023-04-16T21:25:02.895Z,100993.44
2023-04-16T21:27:30.528Z,100988.09
2023-04-16T21:29:58.262Z,100996.28
2023-04-16T21:32:26.028Z,100995.44
2023-04-16T21:34:53.874Z,100991.81
2023-04-16T21:37:22.922Z,100989.16
2023-04-16T21:39:50.694Z,100993.72
2023-04-16T21:42:18.438Z,100991.06
2023-04-16T21:44:46.431Z,100991.19
2023-04-16T21:47:14.581Z,100995.53
2023-04-16T21:49:42.786Z,100992.13
2023-04-16T21:52:14.260Z,100989.56
2023-04-16T21:54:43.305Z,100992.38
2023-04-16T21:57:11.706Z,100989.56
2023-04-16T21:59:39.965Z,100988.09
2023-04-16T22:02:07.835Z,100986.25
2023-04-16T22:04:38.486Z,100984.56
2023-04-16T22:07:08.788Z,100994.38
2023-04-16T22:09:36.668Z,100989.06
2023-04-16T22:12:10.201Z,100989.81
2023-04-16T22:14:44.084Z,100989.91
2023-04-16T22:17:17.277Z,100988.19
2023-04-16T22:19:45.628Z,100987.34
2023-04-16T22:22:13.380Z,100986.69
2023-04-16T22:24:41.176Z,100981.50
2023-04-16T22:27:10.268Z,100985.94
2023-04-16T22:29:38.008Z,100979.03
2023-04-16T22:32:06.359Z,100977.34
2023-04-16T22:34:34.108Z,100975.63
2023-04-16T22:37:03.046Z,100980.09
2023-04-16T22:39:30.886Z,100981.03
2023-04-16T22:41:58.503Z,100974.97
2023-04-16T22:44:27.630Z,100982.22
2023-04-16T22:46:55.310Z,100976.88
2023-04-16T22:49:23.025Z,100985.84
2023-04-16T22:51:50.885Z,100980.63
2023-04-16T22:54:18.538Z,100980.63
2023-04-16T22:56:46.887Z,100989.44
2023-04-16T22:59:14.645Z,100981.47
2023-04-16T23:01:44.087Z,100987.00
2023-04-16T23:04:12.015Z,100984.34
2023-04-16T23:06:40.630Z,100990.59
2023-04-16T23:09:08.524Z,100984.63
2023-04-16T23:11:36.513Z,100986.56
2023-04-16T23:14:05.093Z,100994.44
2023-04-16T23:16:32.790Z,100986.56
2023-04-16T23:19:01.881Z,100984.75
2023-04-16T23:21:29.604Z,100991.03
2023-04-16T23:23:59.104Z,100988.47
2023-04-16T23:26:26.851Z,100993.69
2023-04-16T23:28:54.490Z,100989.53
2023-04-16T23:31:22.194Z,100987.72
2023-04-16T23:33:49.881Z,100981.66
2023-04-16T23:36:18.865Z,100985.38
2023-04-16T23:38:46.594Z,100982.81
2023-04-16T23:41:14.249Z,100991.09
2023-04-16T23:43:41.936Z,100990.25
2023-04-16T23:46:09.663Z,100985.78
2023-04-16T23:48:37.306Z,100990.25
2023-04-16T23:51:05.866Z,100991.09
2023-04-16T23:53:36.299Z,100992.03
2023-04-16T23:56:04.864Z,100986.84
2023-04-16T23:58:32.589Z,100984.19
